Select Airport:
Chesapeake Regional Airport
Last updated: 7 minutes ago
Flight conditions: VFR
Visibility: 7.0 statute miles
Sky Conditions:
   Overcast at 9000 feet
Wind From:
Wind speed: 0 knots (0 mph)
Temperature: 14.9°C (58.82°F)
Dew Point: 10.0°C (50°F)
Altimiter setting: 30.05 in-hg
WX phone: 1-757-204-4290
WX freq: 123.675 MHz
No wind, all runways available.
If at an uncontrolled airport, be sure to listen carefully to the CTAF for the runway(s) in use.
KCPK 220155Z AUTO 00000KT 7SM OVC090 15/10 A3005 RMK AO2 T01490100
FOR REFERENCE USE ONLY, DATA MAY NOT BE CURRENT.
ALWAYS CHECK FOR UP TO DATE INFORMATION.